createdAt,value
2019-03-29T09:27:08.946Z,33.4081
2019-03-29T09:27:39.592Z,32.3568
2019-03-29T09:28:10.581Z,32.2698
2019-03-29T09:28:41.602Z,31.5450
2019-03-29T09:29:12.579Z,30.8171
2019-03-29T09:29:43.589Z,32.8374
2019-03-29T09:30:14.591Z,30.7683
2019-03-29T09:30:45.572Z,31.0918
2019-03-29T09:31:16.617Z,30.7866
2019-03-29T09:31:47.657Z,30.9606
2019-03-29T09:32:18.595Z,30.9545
2019-03-29T09:32:51.558Z,30.8873
2019-03-29T09:33:22.623Z,31.2566
2019-03-29T09:33:53.572Z,31.7647
2019-03-29T09:34:24.591Z,32.0119
2019-03-29T09:34:55.587Z,32.0989
2019-03-29T09:35:26.596Z,33.3028
2019-03-29T09:35:57.585Z,32.5261
2019-03-29T09:36:28.596Z,32.4987
2019-03-29T09:37:00.128Z,35.2804
2019-03-29T09:37:31.603Z,32.0363
2019-03-29T09:38:02.569Z,32.5795
2019-03-29T09:38:33.601Z,32.2881
2019-03-29T09:39:04.583Z,32.2545
2019-03-29T09:39:35.590Z,32.3598
2019-03-29T09:40:06.575Z,31.8242
2019-03-29T09:40:37.640Z,32.3552
2019-03-29T09:41:08.605Z,33.0983
2019-03-29T09:41:39.593Z,32.0394
2019-03-29T09:42:10.590Z,32.6574
2019-03-29T09:42:41.604Z,33.2250
2019-03-29T09:43:12.563Z,32.2423
2019-03-29T09:43:43.599Z,31.5816
2019-03-29T09:44:14.595Z,31.8700
2019-03-29T09:44:45.575Z,32.3232
2019-03-29T09:45:16.574Z,32.3644
2019-03-29T09:45:47.595Z,31.9081
2019-03-29T09:46:18.584Z,33.6934
2019-03-29T09:46:49.582Z,33.8994
2019-03-29T09:47:20.573Z,33.8430
2019-03-29T09:47:51.616Z,35.2621
2019-03-29T09:48:22.585Z,33.4859
2019-03-29T09:48:53.605Z,32.5109
2019-03-29T09:49:24.564Z,32.7367
2019-03-29T09:49:55.626Z,31.9265
2019-03-29T09:50:26.568Z,31.6228
2019-03-29T09:50:57.600Z,31.7159
2019-03-29T09:51:29.286Z,33.0297
2019-03-29T09:52:00.579Z,31.5038
2019-03-29T09:52:31.598Z,32.4208
2019-03-29T09:53:02.445Z,32.3842
2019-03-29T09:56:03.306Z,32.6894
2019-03-29T09:56:49.456Z,32.6497
2019-03-29T09:57:20.318Z,33.1197
2019-03-29T09:57:51.786Z,33.3410
2019-03-29T09:58:24.179Z,34.0032
2019-03-29T09:58:56.255Z,34.6944
2019-03-29T09:59:28.252Z,38.9410
2019-03-29T10:00:00.396Z,42.9816
2019-03-29T10:00:32.189Z,41.7182
2019-03-29T10:35:35.002Z,32.5994
2019-03-29T10:36:05.735Z,32.6406
2019-03-29T10:36:36.765Z,32.1004
2019-03-29T10:38:57.623Z,31.9722
2019-03-29T10:39:28.310Z,31.4946
2019-03-29T10:40:23.607Z,32.7260
2019-03-29T10:53:39.947Z,32.4804
2019-03-29T10:54:10.683Z,32.5673
2019-03-29T10:54:41.708Z,32.4346
2019-03-29T10:55:12.683Z,32.3598
2019-03-29T10:55:43.697Z,32.2423
2019-03-29T10:56:14.681Z,32.1996
2019-03-29T10:56:45.721Z,32.2881
2019-03-29T10:57:16.715Z,32.5856
2019-03-29T10:57:47.703Z,32.4758
2019-03-29T10:58:18.698Z,32.3339
2019-03-29T10:58:58.942Z,32.8084
2019-03-29T10:59:31.756Z,32.7001
2019-03-29T11:00:04.730Z,32.8649
2019-03-29T11:00:37.761Z,32.3369
2019-03-29T11:01:10.734Z,32.4834
2019-03-29T11:01:55.598Z,32.9885
2019-03-29T11:02:11.281Z,32.4788
2019-03-29T11:02:27.292Z,32.7047
2019-03-29T11:02:43.269Z,32.4880
2019-03-29T11:02:59.285Z,32.5612
2019-03-29T11:03:15.320Z,32.1904
2019-03-29T11:03:31.323Z,31.9081
2019-03-29T11:03:47.250Z,32.0577
2019-03-29T11:04:03.293Z,32.0439
2019-03-29T11:04:19.252Z,31.9844
2019-03-29T11:04:35.294Z,31.8074
2019-03-29T11:04:51.271Z,32.2957
2019-03-29T11:05:07.274Z,31.9112
2019-03-29T11:17:22.140Z,31.2795
2019-03-29T11:17:37.871Z,31.7983
2019-03-29T11:17:53.867Z,31.8212
2019-03-29T11:18:09.872Z,31.6045
2019-03-29T11:20:44.255Z,31.2078
2019-03-29T12:32:31.878Z,31.9570
2019-03-29T12:32:47.619Z,31.7693
2019-03-29T12:33:03.623Z,31.6548
2019-03-29T12:33:19.618Z,31.5999
2019-03-29T12:33:35.646Z,31.5587
2019-03-29T12:33:51.622Z,31.5587
2019-03-29T12:34:07.630Z,31.5450
